createdAt,value
2018-06-17T00:00:50.727Z,1014.62
2018-06-17T00:01:59.633Z,1014.62
2018-06-17T00:03:08.496Z,1014.64
2018-06-17T00:04:17.635Z,1014.63
2018-06-17T00:05:26.495Z,1014.68
2018-06-17T00:06:35.357Z,1014.7
2018-06-17T00:07:44.317Z,1014.63
2018-06-17T00:08:53.178Z,1014.6
2018-06-17T00:10:02.040Z,1014.64
2018-06-17T00:11:11.466Z,1014.62
2018-06-17T00:12:20.608Z,1014.65
2018-06-17T00:13:29.820Z,1014.67
2018-06-17T00:14:38.957Z,1014.64
2018-06-17T00:15:47.821Z,1014.67
2018-06-17T00:16:56.962Z,1014.69
2018-06-17T00:18:05.829Z,1014.68
2018-06-17T00:19:14.839Z,1014.68
2018-06-17T00:20:23.699Z,1014.72
2018-06-17T00:21:32.839Z,1014.71
2018-06-17T00:22:41.702Z,1014.73
2018-06-17T00:23:50.564Z,1014.76
2018-06-17T00:24:59.476Z,1014.76
2018-06-17T00:26:08.336Z,1014.78
2018-06-17T00:27:17.198Z,1014.77
2018-06-17T00:28:26.060Z,1014.78
2018-06-17T00:29:34.923Z,1014.81
2018-06-17T00:30:44.060Z,1014.81
2018-06-17T00:31:52.923Z,1014.83
2018-06-17T00:33:01.784Z,1014.78
2018-06-17T00:34:10.921Z,1014.79
2018-06-17T00:35:20.062Z,1014.75
2018-06-17T00:36:29.552Z,1014.8
2018-06-17T00:37:38.416Z,1014.79
2018-06-17T00:38:47.276Z,1014.8
2018-06-17T00:39:56.138Z,1014.85
2018-06-17T00:41:05.001Z,1014.84
2018-06-17T00:42:14.242Z,1014.8
2018-06-17T00:43:23.100Z,1014.81
2018-06-17T00:44:31.961Z,1014.81
2018-06-17T00:45:40.823Z,1014.83
2018-06-17T00:46:49.681Z,1014.81
2018-06-17T00:47:58.593Z,1014.78
2018-06-17T00:49:07.452Z,1014.82
2018-06-17T00:50:16.314Z,1014.81
2018-06-17T00:51:25.173Z,1014.78
2018-06-17T00:52:34.034Z,1014.82
2018-06-17T00:53:43.248Z,1014.78
2018-06-17T00:54:52.115Z,1014.8
2018-06-17T00:56:00.983Z,1014.86
2018-06-17T00:57:10.119Z,1014.88
2018-06-17T00:58:18.979Z,1014.88
2018-06-17T00:59:27.840Z,1014.87
2018-06-17T01:00:36.988Z,1014.9
2018-06-17T01:01:45.847Z,1014.85
2018-06-17T01:02:54.710Z,1014.88
2018-06-17T01:04:03.574Z,1014.89
2018-06-17T01:05:12.534Z,1014.86
2018-06-17T01:06:21.396Z,1014.85
2018-06-17T01:07:30.256Z,1014.85
2018-06-17T01:08:39.117Z,1014.85
2018-06-17T01:09:47.979Z,1014.86
2018-06-17T01:10:57.191Z,1014.83
2018-06-17T01:12:06.055Z,1014.82
2018-06-17T01:13:14.915Z,1014.84
2018-06-17T01:14:23.777Z,1014.82
2018-06-17T01:15:32.637Z,1014.81
2018-06-17T01:16:41.648Z,1014.83
2018-06-17T01:17:50.785Z,1014.8
2018-06-17T01:18:59.732Z,1014.8
2018-06-17T01:20:08.898Z,1014.81
2018-06-17T01:21:18.036Z,1014.83
2018-06-17T01:22:26.896Z,1014.82
2018-06-17T01:23:35.761Z,1014.85
2018-06-17T01:24:44.620Z,1014.84
2018-06-17T01:25:53.758Z,1014.83
2018-06-17T01:27:02.616Z,1014.88
2018-06-17T01:28:11.580Z,1014.83
2018-06-17T01:29:20.443Z,1014.85
2018-06-17T01:30:29.303Z,1014.83
2018-06-17T01:31:38.162Z,1014.83
2018-06-17T01:32:47.299Z,1014.87
2018-06-17T01:33:56.259Z,1014.79
2018-06-17T01:35:05.122Z,1014.81
2018-06-17T01:36:13.988Z,1014.79
2018-06-17T01:37:22.848Z,1014.8
2018-06-17T01:38:31.760Z,1014.78
2018-06-17T01:39:40.952Z,1014.82
2018-06-17T01:40:49.810Z,1014.82
2018-06-17T01:41:58.671Z,1014.8
2018-06-17T01:43:07.535Z,1014.8
2018-06-17T01:44:16.394Z,1014.78
2018-06-17T01:45:25.354Z,1014.79
2018-06-17T01:46:34.217Z,1014.82
2018-06-17T01:47:43.357Z,1014.79
2018-06-17T01:48:52.493Z,1014.77
2018-06-17T01:50:01.354Z,1014.8
2018-06-17T01:51:10.218Z,1014.81
2018-06-17T01:52:19.078Z,1014.81
2018-06-17T01:53:28.219Z,1014.76
2018-06-17T01:54:37.086Z,1014.75
2018-06-17T01:55:46.218Z,1014.75
2018-06-17T01:56:55.077Z,1014.76
2018-06-17T01:58:03.941Z,1014.75
2018-06-17T01:59:12.800Z,1014.71
2018-06-17T02:00:21.663Z,1014.7
2018-06-17T02:01:31.204Z,1014.73
2018-06-17T02:02:40.392Z,1014.69
2018-06-17T02:03:49.253Z,1014.72
2018-06-17T02:04:58.117Z,1014.69
2018-06-17T02:06:07.532Z,1014.67
2018-06-17T02:07:16.400Z,1014.72
2018-06-17T02:08:25.261Z,1014.74
2018-06-17T02:09:34.126Z,1014.72
2018-06-17T02:10:42.987Z,1014.71
2018-06-17T02:11:52.120Z,1014.76
2018-06-17T02:13:01.004Z,1014.8
2018-06-17T02:14:09.965Z,1014.74
2018-06-17T02:15:18.830Z,1014.75
2018-06-17T02:16:27.971Z,1014.7
2018-06-17T02:17:37.658Z,1014.68
2018-06-17T02:18:46.520Z,1014.66
2018-06-17T02:19:55.479Z,1014.66
2018-06-17T02:21:04.634Z,1014.61
2018-06-17T02:22:13.498Z,1014.64
2018-06-17T02:23:22.638Z,1014.64
2018-06-17T02:24:31.497Z,1014.66
2018-06-17T02:25:40.406Z,1014.61
2018-06-17T02:26:49.270Z,1014.58
2018-06-17T02:27:58.132Z,1014.61
2018-06-17T02:29:06.991Z,1014.57
2018-06-17T02:30:15.854Z,1014.55
2018-06-17T02:31:25.581Z,1014.52
2018-06-17T02:32:34.724Z,1014.52
2018-06-17T02:33:44.144Z,1014.53
2018-06-17T02:34:53.006Z,1014.54
2018-06-17T02:36:02.438Z,1014.57
2018-06-17T02:37:11.676Z,1014.6
2018-06-17T02:38:21.098Z,1014.58
2018-06-17T02:39:30.560Z,1014.58
2018-06-17T02:40:39.660Z,1014.55
2018-06-17T02:41:48.543Z,1014.61
2018-06-17T02:42:57.690Z,1014.55
2018-06-17T02:44:07.111Z,1014.54
2018-06-17T02:45:16.540Z,1014.55
2018-06-17T02:46:25.684Z,1014.55
2018-06-17T02:47:35.106Z,1014.57
2018-06-17T02:48:44.572Z,1014.6
2018-06-17T02:49:53.444Z,1014.59
2018-06-17T02:51:02.579Z,1014.59
2018-06-17T02:52:11.443Z,1014.61
2018-06-17T02:53:20.595Z,1014.64
2018-06-17T02:54:30.062Z,1014.67
2018-06-17T02:55:39.480Z,1014.64
2018-06-17T02:56:48.347Z,1014.64
2018-06-17T02:57:57.768Z,1014.69
2018-06-17T02:59:06.623Z,1014.66
2018-06-17T03:00:15.761Z,1014.65
2018-06-17T03:01:24.653Z,1014.64
2018-06-17T03:02:34.073Z,1014.64
2018-06-17T03:03:43.227Z,1014.64
2018-06-17T03:04:52.079Z,1014.61
2018-06-17T03:06:00.943Z,1014.61
2018-06-17T03:07:10.363Z,1014.59
2018-06-17T03:08:19.791Z,1014.58
2018-06-17T03:09:28.936Z,1014.61
2018-06-17T03:10:37.804Z,1014.62
2018-06-17T03:11:46.773Z,1014.64
2018-06-17T03:12:55.635Z,1014.64
2018-06-17T03:14:05.052Z,1014.64
2018-06-17T03:15:13.912Z,1014.65
2018-06-17T03:16:22.777Z,1014.64
2018-06-17T03:17:31.970Z,1014.65
2018-06-17T03:18:41.106Z,1014.65
2018-06-17T03:19:49.967Z,1014.65
2018-06-17T03:20:58.827Z,1014.67
2018-06-17T03:22:07.966Z,1014.67
2018-06-17T03:23:16.927Z,1014.66
2018-06-17T03:24:25.791Z,1014.66
2018-06-17T03:25:35.205Z,1014.68
2018-06-17T03:26:44.064Z,1014.66
2018-06-17T03:27:52.922Z,1014.67
2018-06-17T03:29:02.054Z,1014.67
2018-06-17T03:30:10.896Z,1014.69
2018-06-17T03:31:20.047Z,1014.74
2018-06-17T03:32:29.477Z,1014.75
2018-06-17T03:33:38.339Z,1014.72
2018-06-17T03:34:47.199Z,1014.74
2018-06-17T03:35:56.061Z,1014.77
2018-06-17T03:37:04.923Z,1014.75
2018-06-17T03:38:13.783Z,1014.72
2018-06-17T03:39:22.641Z,1014.78
2018-06-17T03:40:31.604Z,1014.71
2018-06-17T03:41:40.750Z,1014.77
2018-06-17T03:42:49.610Z,1014.72
2018-06-17T03:43:58.479Z,1014.77
2018-06-17T03:45:07.616Z,1014.78
2018-06-17T03:46:16.801Z,1014.81
2018-06-17T03:47:25.665Z,1014.8
2018-06-17T03:48:34.524Z,1014.78
2018-06-17T03:49:43.384Z,1014.83
2018-06-17T03:50:52.244Z,1014.79
2018-06-17T03:52:01.260Z,1014.79
2018-06-17T03:53:10.405Z,1014.81
2018-06-17T03:54:19.543Z,1014.8
2018-06-17T03:55:28.685Z,1014.8
2018-06-17T03:56:37.547Z,1014.84
2018-06-17T03:57:46.760Z,1014.79
2018-06-17T03:58:55.896Z,1014.79
2018-06-17T04:00:04.758Z,1014.8
2018-06-17T04:01:13.620Z,1014.85
2018-06-17T04:02:22.481Z,1014.86
2018-06-17T04:03:31.592Z,1014.87
2018-06-17T04:04:40.730Z,1014.9
2018-06-17T04:05:49.589Z,1014.88
2018-06-17T04:06:58.451Z,1014.89
2018-06-17T04:08:07.321Z,1014.96
2018-06-17T04:09:16.183Z,1014.95
2018-06-17T04:10:25.080Z,1014.93
2018-06-17T04:11:34.314Z,1014.95
2018-06-17T04:12:43.176Z,1014.96
2018-06-17T04:13:52.042Z,1014.95
2018-06-17T04:15:01.188Z,1014.97
2018-06-17T04:16:10.050Z,1014.95
2018-06-17T04:17:19.187Z,1014.95
2018-06-17T04:18:28.327Z,1014.99
2018-06-17T04:19:37.190Z,1014.99
2018-06-17T04:20:46.249Z,1014.98
2018-06-17T04:21:55.389Z,1014.99
2018-06-17T04:23:04.249Z,1014.98
2018-06-17T04:24:13.394Z,1014.99
2018-06-17T04:25:22.283Z,1015
2018-06-17T04:26:31.266Z,1014.98
2018-06-17T04:27:40.126Z,1014.97
2018-06-17T04:28:48.988Z,1014.93
2018-06-17T04:29:57.848Z,1014.95
2018-06-17T04:31:07.292Z,1014.95
2018-06-17T04:32:16.158Z,1014.99
2018-06-17T04:33:25.019Z,1015
2018-06-17T04:34:33.879Z,1015.01
2018-06-17T04:35:42.739Z,1015.01
2018-06-17T04:36:51.604Z,1015.02
2018-06-17T04:38:00.515Z,1015
2018-06-17T04:39:09.410Z,1015.03
2018-06-17T04:40:18.236Z,1015.05
2018-06-17T04:41:27.659Z,1015.02
2018-06-17T04:42:36.794Z,1015.03
2018-06-17T04:43:45.754Z,1015.05
2018-06-17T04:44:54.891Z,1015.01
2018-06-17T04:46:04.030Z,1014.99
2018-06-17T04:47:13.173Z,1014.98
2018-06-17T04:48:22.040Z,1014.97
2018-06-17T04:49:30.947Z,1015.03
2018-06-17T04:50:39.809Z,1015.01
2018-06-17T04:51:48.672Z,1015.05
2018-06-17T04:52:57.826Z,1015.02
2018-06-17T04:54:06.967Z,1015.06
2018-06-17T04:55:16.208Z,1015.04
2018-06-17T04:56:25.068Z,1015.05
2018-06-17T04:57:34.215Z,1015.05
2018-06-17T04:58:43.077Z,1015.01
2018-06-17T04:59:51.941Z,1015.04
2018-06-17T05:01:01.451Z,1015.03
2018-06-17T05:02:10.314Z,1015.04
2018-06-17T05:03:19.176Z,1015.05
2018-06-17T05:04:28.037Z,1015.01
2018-06-17T05:05:36.901Z,1015.02
2018-06-17T05:06:45.764Z,1015.04
2018-06-17T05:07:54.624Z,1015
2018-06-17T05:09:03.485Z,1014.99
2018-06-17T05:10:12.627Z,1014.99
2018-06-17T05:11:21.489Z,1014.98
2018-06-17T05:12:30.402Z,1014.97
2018-06-17T05:13:39.263Z,1014.93
2018-06-17T05:14:48.124Z,1014.96
2018-06-17T05:15:56.986Z,1014.99
2018-06-17T05:17:05.850Z,1014.94
2018-06-17T05:18:15.733Z,1014.93
2018-06-17T05:19:24.596Z,1014.92
2018-06-17T05:20:33.454Z,1014.95
2018-06-17T05:21:42.318Z,1014.94
2018-06-17T05:22:51.462Z,1014.92
2018-06-17T05:24:00.475Z,1014.91
2018-06-17T05:25:09.340Z,1014.96
2018-06-17T05:26:18.195Z,1014.98
2018-06-17T05:27:27.336Z,1015.06
2018-06-17T05:28:36.198Z,1015.03
2018-06-17T05:29:45.384Z,1015.05
2018-06-17T05:30:54.245Z,1015.12
2018-06-17T05:32:03.105Z,1015.04
2018-06-17T05:33:11.966Z,1015.07
2018-06-17T05:34:20.826Z,1015.03
2018-06-17T05:35:29.734Z,1015.07
2018-06-17T05:36:38.880Z,1015.01
2018-06-17T05:37:47.740Z,1015.03
2018-06-17T05:38:57.155Z,1015.02
2018-06-17T05:40:06.017Z,1015.03
2018-06-17T05:41:14.881Z,1015.02
2018-06-17T05:42:23.742Z,1015.02
2018-06-17T05:43:32.602Z,1015.04
2018-06-17T05:44:41.465Z,1015.06
2018-06-17T05:45:50.328Z,1015.14
2018-06-17T05:46:59.292Z,1015.11
2018-06-17T05:48:08.153Z,1015.07
2018-06-17T05:49:17.016Z,1015.07
2018-06-17T05:50:25.876Z,1015.12
2018-06-17T05:51:34.737Z,1015.13
2018-06-17T05:52:43.607Z,1015.08
2018-06-17T05:53:52.471Z,1015.09
2018-06-17T05:55:01.332Z,1015.06
2018-06-17T05:56:10.196Z,1015.07
2018-06-17T05:57:19.660Z,1015.11
2018-06-17T05:58:28.524Z,1015.12
2018-06-17T05:59:37.672Z,1015.15
2018-06-17T06:00:46.841Z,1015.14
2018-06-17T06:01:55.866Z,1015.12
2018-06-17T06:03:04.730Z,1015.13
2018-06-17T06:04:13.591Z,1015.15
2018-06-17T06:05:22.734Z,1015.06
2018-06-17T06:06:31.617Z,1015.09
2018-06-17T06:07:42.205Z,1015.08
2018-06-17T06:08:51.343Z,1015.09
2018-06-17T06:10:00.204Z,1015.12
2018-06-17T06:11:09.068Z,1015.11
2018-06-17T06:12:17.932Z,1015.17
2018-06-17T06:13:26.845Z,1015.16
2018-06-17T06:14:35.707Z,1015.13
2018-06-17T06:15:44.571Z,1015.12
2018-06-17T06:16:53.431Z,1015.1
2018-06-17T06:18:02.345Z,1015.07
2018-06-17T06:19:11.216Z,1015.11
2018-06-17T06:20:20.079Z,1015.08
2018-06-17T06:21:28.945Z,1015.14
2018-06-17T06:22:37.805Z,1015.09
2018-06-17T06:23:46.667Z,1015.08
2018-06-17T06:24:55.530Z,1015.06
2018-06-17T06:26:04.396Z,1015.1
2018-06-17T06:27:13.546Z,1015.07
2018-06-17T06:28:22.960Z,1015.1
2018-06-17T06:29:32.171Z,1015.1
2018-06-17T06:30:41.041Z,1015.1
2018-06-17T06:31:49.904Z,1015.1
2018-06-17T06:32:58.766Z,1015.09
2018-06-17T06:34:07.628Z,1015.11
2018-06-17T06:35:16.845Z,1015.09
2018-06-17T06:36:25.708Z,1015.12
2018-06-17T06:37:34.573Z,1015.13
2018-06-17T06:38:43.712Z,1015.11
2018-06-17T06:39:52.575Z,1015.12
2018-06-17T06:41:01.863Z,1015.1
2018-06-17T06:42:11.002Z,1015.09
2018-06-17T06:43:19.862Z,1015.12
2018-06-17T06:44:28.729Z,1015.11
2018-06-17T06:45:37.889Z,1015.05
2018-06-17T06:46:47.478Z,1015.06
2018-06-17T06:47:56.342Z,1015.08
2018-06-17T06:49:05.202Z,1015.13
2018-06-17T06:50:14.065Z,1015.07
2018-06-17T06:51:22.931Z,1015.12
2018-06-17T06:52:31.896Z,1015.14
2018-06-17T06:53:40.762Z,1015.15
2018-06-17T06:54:50.207Z,1015.17
2018-06-17T06:55:59.620Z,1015.13
2018-06-17T06:57:08.484Z,1015.21
2018-06-17T06:58:17.497Z,1015.18
2018-06-17T06:59:26.365Z,1015.16
2018-06-17T07:00:35.227Z,1015.1
2018-06-17T07:01:44.367Z,1015.13
2018-06-17T07:02:53.233Z,1015.12
2018-06-17T07:04:02.372Z,1015.2
2018-06-17T07:05:11.234Z,1015.2
2018-06-17T07:06:20.462Z,1015.21
2018-06-17T07:07:29.327Z,1015.21
2018-06-17T07:08:38.195Z,1015.21
2018-06-17T07:09:47.384Z,1015.23
2018-06-17T07:10:56.248Z,1015.26
2018-06-17T07:12:05.121Z,1015.19
2018-06-17T07:13:14.267Z,1015.19
2018-06-17T07:14:23.130Z,1015.17
2018-06-17T07:15:32.043Z,1015.19
2018-06-17T07:16:40.915Z,1015.17
2018-06-17T07:17:49.769Z,1015.17
2018-06-17T07:18:58.637Z,1015.2
2018-06-17T07:20:07.498Z,1015.28
2018-06-17T07:21:16.358Z,1015.3
2018-06-17T07:22:25.582Z,1015.23
2018-06-17T07:23:34.443Z,1015.25
2018-06-17T07:24:43.303Z,1015.25
2018-06-17T07:25:52.450Z,1015.2
2018-06-17T07:27:01.412Z,1015.26
2018-06-17T07:28:10.552Z,1015.29
2018-06-17T07:29:19.413Z,1015.24
2018-06-17T07:30:28.561Z,1015.24
2018-06-17T07:31:37.700Z,1015.24
2018-06-17T07:32:46.615Z,1015.27
2018-06-17T07:33:55.758Z,1015.25
2018-06-17T07:35:04.681Z,1015.28
2018-06-17T07:36:13.967Z,1015.25
2018-06-17T07:37:23.695Z,1015.28
2018-06-17T07:38:32.969Z,1015.33
2018-06-17T07:39:41.836Z,1015.37
2018-06-17T07:40:50.857Z,1015.32
2018-06-17T07:42:00.088Z,1015.34
2018-06-17T07:43:09.297Z,1015.32
2018-06-17T07:44:19.021Z,1015.31
2018-06-17T07:45:28.247Z,1015.29
2018-06-17T07:46:37.369Z,1015.32
2018-06-17T07:47:46.445Z,1015.35
2018-06-17T07:48:55.778Z,1015.32
2018-06-17T07:50:05.307Z,1015.38
2018-06-17T07:51:14.543Z,1015.33
2018-06-17T07:52:23.406Z,1015.3
2018-06-17T07:53:32.684Z,1015.37
2018-06-17T07:54:41.984Z,1015.35
2018-06-17T07:55:51.125Z,1015.43
2018-06-17T07:57:00.769Z,1015.41
2018-06-17T07:58:09.947Z,1015.47
2018-06-17T07:59:19.154Z,1015.42
2018-06-17T08:00:28.357Z,1015.4
2018-06-17T08:01:37.512Z,1015.42
2018-06-17T08:02:46.924Z,1015.41
2018-06-17T08:03:55.972Z,1015.45
2018-06-17T08:05:05.176Z,1015.4
2018-06-17T08:06:14.613Z,1015.39
2018-06-17T08:07:24.209Z,1015.44
2018-06-17T08:08:33.385Z,1015.43
2018-06-17T08:09:42.530Z,1015.5
2018-06-17T08:10:52.176Z,1015.49
2018-06-17T08:12:02.277Z,1015.38
2018-06-17T08:13:11.798Z,1015.44
2018-06-17T08:14:20.991Z,1015.41
2018-06-17T08:15:30.136Z,1015.51
2018-06-17T08:16:38.999Z,1015.4
2018-06-17T08:17:47.866Z,1015.39
2018-06-17T08:18:57.256Z,1015.42
2018-06-17T08:20:06.120Z,1015.39
2018-06-17T08:21:15.677Z,1015.36
2018-06-17T08:22:24.530Z,1015.48
2018-06-17T08:23:33.395Z,1015.43
2018-06-17T08:24:42.410Z,1015.46
2018-06-17T08:25:51.554Z,1015.42
2018-06-17T08:27:00.423Z,1015.42
2018-06-17T08:28:09.282Z,1015.39
2018-06-17T08:29:18.425Z,1015.5
2018-06-17T08:30:27.349Z,1015.49
2018-06-17T08:31:36.544Z,1015.5
2018-06-17T08:32:45.408Z,1015.47
2018-06-17T08:33:54.273Z,1015.49
2018-06-17T08:35:03.142Z,1015.48
2018-06-17T08:36:12.660Z,1015.5
2018-06-17T08:37:21.523Z,1015.49
2018-06-17T08:38:30.386Z,1015.57
2018-06-17T08:39:39.528Z,1015.53
2018-06-17T08:40:48.445Z,1015.58
2018-06-17T08:41:57.643Z,1015.51
2018-06-17T08:43:06.508Z,1015.55
2018-06-17T08:44:15.372Z,1015.58
2018-06-17T08:45:24.241Z,1015.59
2018-06-17T08:46:33.659Z,1015.62
2018-06-17T08:47:42.623Z,1015.57
2018-06-17T08:48:51.759Z,1015.56
2018-06-17T08:50:00.625Z,1015.55
2018-06-17T08:51:09.765Z,1015.56
2018-06-17T08:52:18.624Z,1015.53
2018-06-17T08:53:27.492Z,1015.55
2018-06-17T08:54:36.361Z,1015.53
2018-06-17T08:55:45.226Z,1015.55
2018-06-17T08:56:54.214Z,1015.61
2018-06-17T08:58:03.076Z,1015.56
2018-06-17T08:59:11.941Z,1015.56
2018-06-17T09:00:20.809Z,1015.55
2018-06-17T09:01:29.674Z,1015.58
2018-06-17T09:02:38.822Z,1015.58
2018-06-17T09:03:47.701Z,1015.56
2018-06-17T09:04:56.615Z,1015.54
2018-06-17T09:06:05.488Z,1015.54
2018-06-17T09:07:14.352Z,1015.68
2018-06-17T09:08:23.216Z,1015.65
2018-06-17T09:09:32.078Z,1015.64
2018-06-17T09:10:41.192Z,1015.66
2018-06-17T09:11:50.056Z,1015.68
2018-06-17T09:12:59.195Z,1015.73
2018-06-17T09:14:08.099Z,1015.73
2018-06-17T09:15:17.248Z,1015.74
2018-06-17T09:16:26.110Z,1015.76
2018-06-17T09:17:34.978Z,1015.74
2018-06-17T09:18:43.839Z,1015.75
2018-06-17T09:19:52.705Z,1015.74
2018-06-17T09:21:01.635Z,1015.72
2018-06-17T09:22:10.770Z,1015.75
2018-06-17T09:23:19.918Z,1015.78
2018-06-17T09:24:28.785Z,1015.8
2018-06-17T09:25:37.647Z,1015.72
2018-06-17T09:26:46.788Z,1015.73
2018-06-17T09:27:55.801Z,1015.73
2018-06-17T09:29:04.665Z,1015.79
2018-06-17T09:30:13.527Z,1015.81
2018-06-17T09:31:22.390Z,1015.78
2018-06-17T09:32:31.541Z,1015.83
2018-06-17T09:33:40.405Z,1015.83
2018-06-17T09:34:49.595Z,1015.86
2018-06-17T09:35:58.738Z,1015.86
2018-06-17T09:37:07.889Z,1015.89
2018-06-17T09:38:17.116Z,1015.88
2018-06-17T09:39:26.356Z,1015.84
2018-06-17T09:40:35.220Z,1015.87
2018-06-17T09:41:44.472Z,1015.87
2018-06-17T09:42:53.337Z,1015.92
2018-06-17T09:44:02.328Z,1015.89
2018-06-17T09:45:11.348Z,1015.9
2018-06-17T09:46:20.217Z,1015.97
2018-06-17T09:47:29.086Z,1015.89
2018-06-17T09:48:37.985Z,1015.87
2018-06-17T09:49:46.895Z,1015.9
2018-06-17T09:50:56.131Z,1015.98
2018-06-17T09:52:05.056Z,1015.97
2018-06-17T09:53:13.884Z,1016.03
2018-06-17T09:54:22.924Z,1015.98
2018-06-17T09:55:32.068Z,1015.96
2018-06-17T09:56:41.181Z,1016.02
2018-06-17T09:57:50.170Z,1015.97
2018-06-17T09:58:59.047Z,1015.93
2018-06-17T10:00:08.199Z,1016.01
2018-06-17T10:01:17.064Z,1016.03
2018-06-17T10:02:26.751Z,1016.03
2018-06-17T10:03:35.849Z,1016
2018-06-17T10:04:44.720Z,1016
2018-06-17T10:05:53.864Z,1016.05
2018-06-17T10:07:02.728Z,1015.98
2018-06-17T10:08:11.644Z,1015.95
2018-06-17T10:09:20.782Z,1016.01
2018-06-17T10:10:29.648Z,1016.02
2018-06-17T10:11:38.525Z,1016.01
2018-06-17T10:12:47.688Z,1015.98
2018-06-17T10:13:56.702Z,1016.01
2018-06-17T10:15:05.848Z,1015.98
2018-06-17T10:16:14.712Z,1015.98
2018-06-17T10:17:23.855Z,1015.99
2018-06-17T10:18:32.722Z,1015.95
2018-06-17T10:19:41.964Z,1016.09
2018-06-17T10:20:50.832Z,1016.1
2018-06-17T10:21:59.698Z,1016.07
2018-06-17T10:23:08.563Z,1016.05
2018-06-17T10:24:17.429Z,1016.04
2018-06-17T10:25:27.308Z,1016.01
2018-06-17T10:26:36.451Z,1016.04
2018-06-17T10:27:45.592Z,1016.1
2018-06-17T10:28:54.458Z,1016.03
2018-06-17T10:30:03.327Z,1016.08
2018-06-17T10:31:12.185Z,1016.08
2018-06-17T10:32:21.052Z,1016.18
2018-06-17T10:33:30.197Z,1016.08
2018-06-17T10:34:39.061Z,1015.98
2018-06-17T10:35:47.925Z,1016
2018-06-17T10:36:57.073Z,1015.98
2018-06-17T10:38:06.005Z,1015.99
2018-06-17T10:39:15.920Z,1015.99
2018-06-17T10:40:24.785Z,1015.97
2018-06-17T10:41:33.651Z,1016
2018-06-17T10:42:42.941Z,1016.03
2018-06-17T10:43:51.807Z,1015.96
2018-06-17T10:45:00.674Z,1016.15
2018-06-17T10:46:09.535Z,1016.05
2018-06-17T10:47:18.404Z,1016.12
2018-06-17T10:48:27.266Z,1016.07
2018-06-17T10:49:36.133Z,1016.11
2018-06-17T10:50:44.998Z,1016.11
2018-06-17T10:51:53.862Z,1016.07
2018-06-17T10:53:02.727Z,1016.1
2018-06-17T10:54:11.743Z,1016.12
2018-06-17T10:55:20.609Z,1016.06
2018-06-17T10:56:29.475Z,1016.1
2018-06-17T10:57:38.723Z,1016.08
2018-06-17T10:58:47.591Z,1016.12
2018-06-17T10:59:56.463Z,1016.1
2018-06-17T11:01:05.943Z,1016.06
2018-06-17T11:02:15.044Z,1016.11
2018-06-17T11:03:23.911Z,1016.15
2018-06-17T11:04:32.773Z,1016.13
2018-06-17T11:05:41.917Z,1016.14
2018-06-17T11:06:51.022Z,1016.07
2018-06-17T11:07:59.885Z,1016.07
2018-06-17T11:09:09.031Z,1016.16
2018-06-17T11:10:17.893Z,1016.15
2018-06-17T11:11:27.192Z,1016.1
2018-06-17T11:12:36.339Z,1016.11
2018-06-17T11:13:45.206Z,1016.11
2018-06-17T11:14:54.366Z,1016.11
2018-06-17T11:16:03.222Z,1016.15
2018-06-17T11:17:12.417Z,1016.11
2018-06-17T11:18:21.556Z,1016.1
2018-06-17T11:19:30.421Z,1016.15
2018-06-17T11:20:39.287Z,1016.16
2018-06-17T11:21:48.153Z,1016.19
2018-06-17T11:22:57.118Z,1016.14
2018-06-17T11:24:05.981Z,1016.19
2018-06-17T11:25:14.850Z,1016.15
2018-06-17T11:26:23.711Z,1016.16
2018-06-17T11:27:33.188Z,1016.15
2018-06-17T11:28:42.387Z,1016.18
2018-06-17T11:29:51.249Z,1016.22
2018-06-17T11:31:00.118Z,1016.22
2018-06-17T11:32:09.257Z,1016.21
2018-06-17T11:33:18.120Z,1016.18
2018-06-17T11:34:27.134Z,1016.2
2018-06-17T11:35:36.000Z,1016.22
2018-06-17T11:36:44.867Z,1016.24
2018-06-17T11:37:53.735Z,1016.27
2018-06-17T11:39:02.643Z,1016.18
2018-06-17T11:40:11.962Z,1016.19
2018-06-17T11:41:20.831Z,1016.2
2018-06-17T11:42:29.980Z,1016.19
2018-06-17T11:43:38.847Z,1016.16
2018-06-17T11:44:47.711Z,1016.21
2018-06-17T11:45:56.726Z,1016.17
2018-06-17T11:47:05.592Z,1016.15
2018-06-17T11:48:14.459Z,1016.27
2018-06-17T11:49:23.706Z,1016.18
2018-06-17T11:50:33.142Z,1016.25
2018-06-17T11:51:42.391Z,1016.22
2018-06-17T11:52:51.834Z,1016.29
2018-06-17T11:54:00.696Z,1016.27
2018-06-17T11:55:09.562Z,1016.3
2018-06-17T11:56:18.434Z,1016.24
2018-06-17T11:57:28.075Z,1016.26
2018-06-17T11:58:36.941Z,1016.3
2018-06-17T11:59:46.105Z,1016.3
2018-06-17T12:00:55.319Z,1016.25
2018-06-17T12:02:04.188Z,1016.3
2018-06-17T12:03:13.054Z,1016.27
2018-06-17T12:04:21.922Z,1016.26
2018-06-17T12:05:30.882Z,1016.28
2018-06-17T12:06:39.761Z,1016.29
2018-06-17T12:07:48.904Z,1016.34
2018-06-17T12:08:58.102Z,1016.34
2018-06-17T12:10:06.972Z,1016.35
2018-06-17T12:11:16.148Z,1016.35
2018-06-17T12:12:25.020Z,1016.37
2018-06-17T12:13:33.884Z,1016.39
2018-06-17T12:14:42.900Z,1016.45
2018-06-17T12:15:51.717Z,1016.42
2018-06-17T12:17:00.587Z,1016.44
2018-06-17T12:18:09.452Z,1016.46
2018-06-17T12:19:18.313Z,1016.48
2018-06-17T12:20:27.177Z,1016.46
2018-06-17T12:21:36.049Z,1016.45
2018-06-17T12:22:44.913Z,1016.42
2018-06-17T12:23:53.780Z,1016.41
2018-06-17T12:25:02.651Z,1016.48
2018-06-17T12:26:11.621Z,1016.46
2018-06-17T12:27:20.488Z,1016.49
2018-06-17T12:28:29.353Z,1016.47
2018-06-17T12:29:38.219Z,1016.45
2018-06-17T12:30:47.085Z,1016.45
2018-06-17T12:31:56.050Z,1016.47
2018-06-17T12:33:04.916Z,1016.43
2018-06-17T12:34:14.066Z,1016.53
2018-06-17T12:35:22.938Z,1016.5
2018-06-17T12:36:32.361Z,1016.43
2018-06-17T12:37:41.277Z,1016.5
2018-06-17T12:38:50.144Z,1016.46
2018-06-17T12:39:59.285Z,1016.42
2018-06-17T12:41:08.723Z,1016.46
2018-06-17T12:42:17.592Z,1016.5
2018-06-17T12:43:26.495Z,1016.5
2018-06-17T12:44:35.362Z,1016.54
2018-06-17T12:45:44.508Z,1016.58
2018-06-17T12:46:53.373Z,1016.58
2018-06-17T12:48:02.246Z,1016.54
2018-06-17T12:49:11.554Z,1016.6
2018-06-17T12:50:20.425Z,1016.56
2018-06-17T12:51:29.946Z,1016.58
2018-06-17T12:52:38.811Z,1016.6
2018-06-17T12:53:47.957Z,1016.6
2018-06-17T12:54:56.896Z,1016.58
2018-06-17T12:56:05.762Z,1016.6
2018-06-17T12:57:14.632Z,1016.63
2018-06-17T12:58:23.776Z,1016.65
2018-06-17T12:59:32.923Z,1016.61
2018-06-17T13:00:41.790Z,1016.61
2018-06-17T13:01:50.658Z,1016.59
2018-06-17T13:02:59.564Z,1016.64
2018-06-17T13:04:08.426Z,1016.73
2018-06-17T13:05:17.602Z,1016.66
2018-06-17T13:06:27.383Z,1016.7
2018-06-17T13:07:36.337Z,1016.74
2018-06-17T13:08:45.202Z,1016.73
2018-06-17T13:09:54.069Z,1016.79
2018-06-17T13:11:02.941Z,1016.73
2018-06-17T13:12:11.874Z,1016.76
2018-06-17T13:13:20.959Z,1016.68
2018-06-17T13:14:29.845Z,1016.72
2018-06-17T13:15:38.713Z,1016.76
2018-06-17T13:16:47.586Z,1016.93
2018-06-17T13:17:56.831Z,1016.76
2018-06-17T13:19:05.981Z,1016.78
2018-06-17T13:20:14.859Z,1016.84
2018-06-17T13:21:24.010Z,1016.86
2018-06-17T13:22:32.876Z,1016.86
2018-06-17T13:23:41.866Z,1016.84
2018-06-17T13:24:50.764Z,1016.85
2018-06-17T13:25:59.728Z,1016.81
2018-06-17T13:27:08.604Z,1016.78
2018-06-17T13:28:17.750Z,1016.85
2018-06-17T13:29:26.707Z,1016.88
2018-06-17T13:30:35.579Z,1016.89
2018-06-17T13:31:44.450Z,1016.87
2018-06-17T13:32:53.320Z,1016.89
2018-06-17T13:34:02.191Z,1016.85
2018-06-17T13:35:11.211Z,1016.88
2018-06-17T13:36:20.083Z,1016.85
2018-06-17T13:37:29.007Z,1016.88
2018-06-17T13:38:38.155Z,1016.79
2018-06-17T13:39:47.023Z,1016.9
2018-06-17T13:40:55.944Z,1016.9
2018-06-17T13:42:04.816Z,1016.9
2018-06-17T13:43:13.688Z,1016.85
2018-06-17T13:44:22.829Z,1016.8
2018-06-17T13:45:31.697Z,1016.8
2018-06-17T13:46:40.573Z,1016.79
2018-06-17T13:47:49.444Z,1016.91
2018-06-17T13:48:58.310Z,1016.97
2018-06-17T13:50:07.178Z,1016.98
2018-06-17T13:51:16.052Z,1016.96
2018-06-17T13:52:25.298Z,1017.07
2018-06-17T13:53:34.231Z,1017.05
2018-06-17T13:54:43.122Z,1017
2018-06-17T13:55:52.313Z,1017.13
2018-06-17T13:57:01.473Z,1017.16
2018-06-17T13:58:10.396Z,1017.24